sensor_id;sensor_type;location;lat;lon;timestamp;P1;durP1;ratioP1;P2;durP2;ratioP2
54025;SDS011;74404;50.662;3.398;2024-01-06T00:01:20;4.60;;;1.13;;
54025;SDS011;74404;50.662;3.398;2024-01-06T00:03:46;3.88;;;0.93;;
54025;SDS011;74404;50.662;3.398;2024-01-06T00:06:12;4.03;;;1.33;;
54025;SDS011;74404;50.662;3.398;2024-01-06T00:08:38;2.90;;;1.15;;
54025;SDS011;74404;50.662;3.398;2024-01-06T00:11:04;2.80;;;1.00;;
54025;SDS011;74404;50.662;3.398;2024-01-06T00:13:29;3.13;;;0.90;;
54025;SDS011;74404;50.662;3.398;2024-01-06T00:15:55;4.53;;;1.10;;
54025;SDS011;74404;50.662;3.398;2024-01-06T00:18:20;2.70;;;1.20;;
54025;SDS011;74404;50.662;3.398;2024-01-06T00:20:46;6.85;;;1.40;;
54025;SDS011;74404;50.662;3.398;2024-01-06T00:23:11;3.03;;;1.00;;
54025;SDS011;74404;50.662;3.398;2024-01-06T00:25:37;4.30;;;1.00;;
54025;SDS011;74404;50.662;3.398;2024-01-06T00:28:02;6.90;;;0.90;;
54025;SDS011;74404;50.662;3.398;2024-01-06T00:30:28;3.25;;;1.05;;
54025;SDS011;74404;50.662;3.398;2024-01-06T00:32:53;3.58;;;1.13;;
54025;SDS011;74404;50.662;3.398;2024-01-06T00:35:20;4.75;;;1.10;;
54025;SDS011;74404;50.662;3.398;2024-01-06T00:37:45;2.47;;;0.90;;
54025;SDS011;74404;50.662;3.398;2024-01-06T00:40:11;2.08;;;0.98;;
54025;SDS011;74404;50.662;3.398;2024-01-06T00:42:36;3.42;;;1.20;;
54025;SDS011;74404;50.662;3.398;2024-01-06T00:45:02;4.28;;;0.90;;
54025;SDS011;74404;50.662;3.398;2024-01-06T00:47:29;4.65;;;1.48;;
54025;SDS011;74404;50.662;3.398;2024-01-06T00:49:54;3.75;;;1.20;;
54025;SDS011;74404;50.662;3.398;2024-01-06T00:52:20;5.82;;;1.10;;
54025;SDS011;74404;50.662;3.398;2024-01-06T00:54:45;4.40;;;1.30;;
54025;SDS011;74404;50.662;3.398;2024-01-06T00:57:12;4.38;;;1.20;;
54025;SDS011;74404;50.662;3.398;2024-01-06T00:59:37;3.38;;;1.10;;
54025;SDS011;74404;50.662;3.398;2024-01-06T01:02:03;2.47;;;1.00;;
54025;SDS011;74404;50.662;3.398;2024-01-06T01:04:28;3.00;;;1.00;;
54025;SDS011;74404;50.662;3.398;2024-01-06T01:06:54;3.38;;;0.98;;
54025;SDS011;74404;50.662;3.398;2024-01-06T01:09:19;4.10;;;1.23;;
54025;SDS011;74404;50.662;3.398;2024-01-06T01:11:45;4.25;;;1.13;;
54025;SDS011;74404;50.662;3.398;2024-01-06T01:14:10;2.15;;;0.98;;
54025;SDS011;74404;50.662;3.398;2024-01-06T01:16:36;3.05;;;1.10;;
54025;SDS011;74404;50.662;3.398;2024-01-06T01:19:01;4.72;;;1.27;;
54025;SDS011;74404;50.662;3.398;2024-01-06T01:21:27;5.50;;;1.25;;
54025;SDS011;74404;50.662;3.398;2024-01-06T01:23:53;2.38;;;1.10;;
54025;SDS011;74404;50.662;3.398;2024-01-06T01:26:19;7.13;;;1.33;;
54025;SDS011;74404;50.662;3.398;2024-01-06T01:28:44;2.75;;;1.05;;
54025;SDS011;74404;50.662;3.398;2024-01-06T01:31:12;3.35;;;1.25;;
54025;SDS011;74404;50.662;3.398;2024-01-06T01:33:38;3.58;;;1.10;;
54025;SDS011;74404;50.662;3.398;2024-01-06T01:36:04;5.05;;;1.25;;
54025;SDS011;74404;50.662;3.398;2024-01-06T01:38:29;3.05;;;1.00;;
54025;SDS011;74404;50.662;3.398;2024-01-06T01:40:55;1.95;;;1.10;;
54025;SDS011;74404;50.662;3.398;2024-01-06T01:43:20;3.67;;;1.30;;
54025;SDS011;74404;50.662;3.398;2024-01-06T01:45:48;3.53;;;1.23;;
54025;SDS011;74404;50.662;3.398;2024-01-06T01:48:17;4.60;;;1.15;;
54025;SDS011;74404;50.662;3.398;2024-01-06T01:50:43;3.10;;;1.15;;
54025;SDS011;74404;50.662;3.398;2024-01-06T01:53:09;5.05;;;1.20;;
54025;SDS011;74404;50.662;3.398;2024-01-06T01:55:35;4.78;;;1.30;;
54025;SDS011;74404;50.662;3.398;2024-01-06T01:58:01;2.15;;;1.10;;
54025;SDS011;74404;50.662;3.398;2024-01-06T02:00:27;6.28;;;1.35;;
54025;SDS011;74404;50.662;3.398;2024-01-06T02:02:53;3.92;;;1.40;;
54025;SDS011;74404;50.662;3.398;2024-01-06T02:05:18;2.50;;;0.85;;
54025;SDS011;74404;50.662;3.398;2024-01-06T02:07:43;2.25;;;1.10;;
54025;SDS011;74404;50.662;3.398;2024-01-06T02:10:09;3.75;;;1.38;;
54025;SDS011;74404;50.662;3.398;2024-01-06T02:12:35;4.72;;;1.63;;
54025;SDS011;74404;50.662;3.398;2024-01-06T02:15:00;5.63;;;1.10;;
54025;SDS011;74404;50.662;3.398;2024-01-06T02:17:26;5.50;;;1.23;;
54025;SDS011;74404;50.662;3.398;2024-01-06T02:19:51;5.78;;;1.10;;
54025;SDS011;74404;50.662;3.398;2024-01-06T02:22:16;4.55;;;1.20;;
54025;SDS011;74404;50.662;3.398;2024-01-06T02:24:42;3.70;;;1.02;;
54025;SDS011;74404;50.662;3.398;2024-01-06T02:27:07;3.63;;;1.15;;
54025;SDS011;74404;50.662;3.398;2024-01-06T02:29:33;4.32;;;1.20;;
54025;SDS011;74404;50.662;3.398;2024-01-06T02:31:58;5.18;;;1.42;;
54025;SDS011;74404;50.662;3.398;2024-01-06T02:34:24;5.38;;;1.30;;
54025;SDS011;74404;50.662;3.398;2024-01-06T02:36:49;5.00;;;1.30;;
54025;SDS011;74404;50.662;3.398;2024-01-06T02:39:14;5.32;;;1.77;;
54025;SDS011;74404;50.662;3.398;2024-01-06T02:41:40;5.07;;;1.40;;
54025;SDS011;74404;50.662;3.398;2024-01-06T02:44:05;2.42;;;1.30;;
54025;SDS011;74404;50.662;3.398;2024-01-06T02:46:31;6.22;;;1.55;;
54025;SDS011;74404;50.662;3.398;2024-01-06T02:48:56;2.78;;;1.50;;
54025;SDS011;74404;50.662;3.398;2024-01-06T02:51:22;3.67;;;1.35;;
54025;SDS011;74404;50.662;3.398;2024-01-06T02:53:47;4.53;;;1.50;;
54025;SDS011;74404;50.662;3.398;2024-01-06T02:56:13;4.43;;;1.30;;
54025;SDS011;74404;50.662;3.398;2024-01-06T02:58:38;5.40;;;1.52;;
54025;SDS011;74404;50.662;3.398;2024-01-06T03:01:04;4.03;;;1.60;;
54025;SDS011;74404;50.662;3.398;2024-01-06T03:03:30;2.67;;;1.75;;
54025;SDS011;74404;50.662;3.398;2024-01-06T03:05:55;3.33;;;1.33;;
54025;SDS011;74404;50.662;3.398;2024-01-06T03:08:20;3.33;;;1.23;;
54025;SDS011;74404;50.662;3.398;2024-01-06T03:10:47;5.45;;;1.95;;
54025;SDS011;74404;50.662;3.398;2024-01-06T03:13:14;2.88;;;1.35;;
54025;SDS011;74404;50.662;3.398;2024-01-06T03:15:39;4.20;;;1.40;;
54025;SDS011;74404;50.662;3.398;2024-01-06T03:18:05;5.30;;;1.60;;
54025;SDS011;74404;50.662;3.398;2024-01-06T03:20:30;3.33;;;1.50;;
54025;SDS011;74404;50.662;3.398;2024-01-06T03:22:56;3.95;;;1.45;;
54025;SDS011;74404;50.662;3.398;2024-01-06T03:25:21;3.35;;;1.50;;
54025;SDS011;74404;50.662;3.398;2024-01-06T03:27:49;2.53;;;1.42;;
54025;SDS011;74404;50.662;3.398;2024-01-06T03:30:14;1.60;;;1.50;;
54025;SDS011;74404;50.662;3.398;2024-01-06T03:32:39;4.50;;;1.70;;
54025;SDS011;74404;50.662;3.398;2024-01-06T03:35:05;5.32;;;1.90;;
54025;SDS011;74404;50.662;3.398;2024-01-06T03:37:32;3.67;;;1.63;;
54025;SDS011;74404;50.662;3.398;2024-01-06T03:39:58;5.88;;;2.20;;
54025;SDS011;74404;50.662;3.398;2024-01-06T03:42:24;2.85;;;1.55;;
54025;SDS011;74404;50.662;3.398;2024-01-06T03:44:49;5.30;;;1.85;;
54025;SDS011;74404;50.662;3.398;2024-01-06T03:47:14;3.42;;;1.80;;
54025;SDS011;74404;50.662;3.398;2024-01-06T03:49:40;3.72;;;1.98;;
54025;SDS011;74404;50.662;3.398;2024-01-06T03:52:05;5.13;;;1.95;;
54025;SDS011;74404;50.662;3.398;2024-01-06T03:54:31;4.15;;;1.50;;
54025;SDS011;74404;50.662;3.398;2024-01-06T03:56:56;3.45;;;1.95;;
54025;SDS011;74404;50.662;3.398;2024-01-06T03:59:22;4.13;;;1.98;;
54025;SDS011;74404;50.662;3.398;2024-01-06T04:01:47;6.00;;;2.22;;
54025;SDS011;74404;50.662;3.398;2024-01-06T04:04:13;4.45;;;2.10;;
54025;SDS011;74404;50.662;3.398;2024-01-06T04:06:39;4.13;;;2.00;;
54025;SDS011;74404;50.662;3.398;2024-01-06T04:09:05;4.07;;;2.20;;
54025;SDS011;74404;50.662;3.398;2024-01-06T04:11:31;3.08;;;2.33;;
54025;SDS011;74404;50.662;3.398;2024-01-06T04:13:56;2.47;;;2.03;;
54025;SDS011;74404;50.662;3.398;2024-01-06T04:16:22;4.95;;;2.38;;
54025;SDS011;74404;50.662;3.398;2024-01-06T04:18:47;4.32;;;2.35;;
54025;SDS011;74404;50.662;3.398;2024-01-06T04:21:13;4.75;;;2.35;;
54025;SDS011;74404;50.662;3.398;2024-01-06T04:23:38;4.03;;;2.20;;
54025;SDS011;74404;50.662;3.398;2024-01-06T04:26:04;5.75;;;2.17;;
54025;SDS011;74404;50.662;3.398;2024-01-06T04:28:30;6.38;;;2.28;;
54025;SDS011;74404;50.662;3.398;2024-01-06T04:30:55;6.13;;;2.28;;
54025;SDS011;74404;50.662;3.398;2024-01-06T04:33:21;5.10;;;1.85;;
54025;SDS011;74404;50.662;3.398;2024-01-06T04:35:46;5.90;;;1.88;;
54025;SDS011;74404;50.662;3.398;2024-01-06T04:38:12;3.72;;;1.70;;
54025;SDS011;74404;50.662;3.398;2024-01-06T04:40:37;4.47;;;1.70;;
54025;SDS011;74404;50.662;3.398;2024-01-06T04:43:03;2.90;;;1.75;;
54025;SDS011;74404;50.662;3.398;2024-01-06T04:45:28;5.07;;;1.63;;
54025;SDS011;74404;50.662;3.398;2024-01-06T04:47:54;4.85;;;2.03;;
54025;SDS011;74404;50.662;3.398;2024-01-06T04:50:20;8.55;;;1.92;;
54025;SDS011;74404;50.662;3.398;2024-01-06T04:52:45;6.50;;;1.83;;
54025;SDS011;74404;50.662;3.398;2024-01-06T04:55:11;4.78;;;1.52;;
54025;SDS011;74404;50.662;3.398;2024-01-06T04:57:36;3.75;;;1.60;;
54025;SDS011;74404;50.662;3.398;2024-01-06T05:00:03;5.20;;;1.75;;
54025;SDS011;74404;50.662;3.398;2024-01-06T05:02:29;3.60;;;1.65;;
54025;SDS011;74404;50.662;3.398;2024-01-06T05:04:54;2.35;;;1.65;;
54025;SDS011;74404;50.662;3.398;2024-01-06T05:07:20;2.60;;;1.52;;
54025;SDS011;74404;50.662;3.398;2024-01-06T05:09:45;3.05;;;1.33;;
54025;SDS011;74404;50.662;3.398;2024-01-06T05:12:11;3.63;;;1.40;;
54025;SDS011;74404;50.662;3.398;2024-01-06T05:14:36;5.57;;;1.80;;
54025;SDS011;74404;50.662;3.398;2024-01-06T05:17:02;3.95;;;1.40;;
54025;SDS011;74404;50.662;3.398;2024-01-06T05:19:27;5.07;;;1.50;;
54025;SDS011;74404;50.662;3.398;2024-01-06T05:21:53;5.00;;;1.70;;
54025;SDS011;74404;50.662;3.398;2024-01-06T05:24:18;6.32;;;1.33;;
54025;SDS011;74404;50.662;3.398;2024-01-06T05:26:44;5.07;;;1.67;;
54025;SDS011;74404;50.662;3.398;2024-01-06T05:29:10;2.50;;;1.50;;
54025;SDS011;74404;50.662;3.398;2024-01-06T05:31:35;2.60;;;1.05;;
54025;SDS011;74404;50.662;3.398;2024-01-06T05:34:01;5.10;;;1.33;;
54025;SDS011;74404;50.662;3.398;2024-01-06T05:36:26;3.78;;;1.30;;
54025;SDS011;74404;50.662;3.398;2024-01-06T05:38:52;3.72;;;1.15;;
54025;SDS011;74404;50.662;3.398;2024-01-06T05:41:17;3.13;;;1.25;;
54025;SDS011;74404;50.662;3.398;2024-01-06T05:43:44;2.97;;;1.13;;
54025;SDS011;74404;50.662;3.398;2024-01-06T05:46:09;2.55;;;1.10;;
54025;SDS011;74404;50.662;3.398;2024-01-06T05:48:36;3.60;;;1.20;;
54025;SDS011;74404;50.662;3.398;2024-01-06T05:51:01;3.17;;;1.33;;
54025;SDS011;74404;50.662;3.398;2024-01-06T05:53:29;4.15;;;1.10;;
54025;SDS011;74404;50.662;3.398;2024-01-06T05:55:54;7.47;;;1.27;;
54025;SDS011;74404;50.662;3.398;2024-01-06T05:58:19;3.10;;;1.45;;
54025;SDS011;74404;50.662;3.398;2024-01-06T06:00:45;3.00;;;1.20;;
54025;SDS011;74404;50.662;3.398;2024-01-06T06:03:12;4.03;;;1.40;;
54025;SDS011;74404;50.662;3.398;2024-01-06T06:05:37;5.57;;;1.30;;
54025;SDS011;74404;50.662;3.398;2024-01-06T06:08:03;2.35;;;1.08;;
54025;SDS011;74404;50.662;3.398;2024-01-06T06:10:28;2.65;;;1.05;;
54025;SDS011;74404;50.662;3.398;2024-01-06T06:13:05;5.13;;;1.30;;
54025;SDS011;74404;50.662;3.398;2024-01-06T06:15:31;4.65;;;1.02;;
54025;SDS011;74404;50.662;3.398;2024-01-06T06:17:57;3.05;;;1.10;;
54025;SDS011;74404;50.662;3.398;2024-01-06T06:20:25;2.97;;;1.15;;
54025;SDS011;74404;50.662;3.398;2024-01-06T06:22:51;2.25;;;1.10;;
54025;SDS011;74404;50.662;3.398;2024-01-06T06:25:16;3.55;;;1.30;;
54025;SDS011;74404;50.662;3.398;2024-01-06T06:27:41;2.38;;;1.30;;
54025;SDS011;74404;50.662;3.398;2024-01-06T06:30:07;2.97;;;1.02;;
54025;SDS011;74404;50.662;3.398;2024-01-06T06:32:33;4.15;;;1.38;;
54025;SDS011;74404;50.662;3.398;2024-01-06T06:34:58;5.82;;;1.30;;
54025;SDS011;74404;50.662;3.398;2024-01-06T06:37:24;4.53;;;0.98;;
54025;SDS011;74404;50.662;3.398;2024-01-06T06:39:49;4.13;;;1.50;;
54025;SDS011;74404;50.662;3.398;2024-01-06T06:42:15;3.08;;;1.10;;
54025;SDS011;74404;50.662;3.398;2024-01-06T06:44:40;2.90;;;1.00;;
54025;SDS011;74404;50.662;3.398;2024-01-06T06:47:06;5.80;;;1.30;;
54025;SDS011;74404;50.662;3.398;2024-01-06T06:49:31;4.38;;;1.10;;
54025;SDS011;74404;50.662;3.398;2024-01-06T06:51:57;5.40;;;1.83;;
54025;SDS011;74404;50.662;3.398;2024-01-06T06:54:22;4.10;;;1.20;;
54025;SDS011;74404;50.662;3.398;2024-01-06T06:56:48;4.57;;;1.13;;
54025;SDS011;74404;50.662;3.398;2024-01-06T06:59:13;1.98;;;1.25;;
54025;SDS011;74404;50.662;3.398;2024-01-06T07:01:39;3.80;;;1.27;;
54025;SDS011;74404;50.662;3.398;2024-01-06T07:04:05;3.33;;;1.20;;
54025;SDS011;74404;50.662;3.398;2024-01-06T07:06:30;6.70;;;1.70;;
54025;SDS011;74404;50.662;3.398;2024-01-06T07:08:56;6.72;;;1.40;;
54025;SDS011;74404;50.662;3.398;2024-01-06T07:11:22;2.85;;;1.10;;
54025;SDS011;74404;50.662;3.398;2024-01-06T07:13:47;5.85;;;1.40;;
54025;SDS011;74404;50.662;3.398;2024-01-06T07:16:13;5.53;;;1.60;;
54025;SDS011;74404;50.662;3.398;2024-01-06T07:18:38;7.30;;;1.83;;
54025;SDS011;74404;50.662;3.398;2024-01-06T07:21:06;1.67;;;1.02;;
54025;SDS011;74404;50.662;3.398;2024-01-06T07:23:32;6.60;;;1.20;;
54025;SDS011;74404;50.662;3.398;2024-01-06T07:25:58;4.45;;;1.48;;
54025;SDS011;74404;50.662;3.398;2024-01-06T07:28:23;3.78;;;1.55;;
54025;SDS011;74404;50.662;3.398;2024-01-06T07:30:49;3.35;;;1.13;;
54025;SDS011;74404;50.662;3.398;2024-01-06T07:33:15;4.03;;;1.20;;
54025;SDS011;74404;50.662;3.398;2024-01-06T07:35:40;5.10;;;1.42;;
54025;SDS011;74404;50.662;3.398;2024-01-06T07:38:08;4.18;;;1.40;;
54025;SDS011;74404;50.662;3.398;2024-01-06T07:40:37;3.45;;;1.30;;
54025;SDS011;74404;50.662;3.398;2024-01-06T07:43:03;3.17;;;1.20;;
54025;SDS011;74404;50.662;3.398;2024-01-06T07:45:29;3.15;;;1.30;;
54025;SDS011;74404;50.662;3.398;2024-01-06T07:47:56;3.25;;;1.27;;
54025;SDS011;74404;50.662;3.398;2024-01-06T07:50:22;5.72;;;1.40;;
54025;SDS011;74404;50.662;3.398;2024-01-06T07:52:48;2.42;;;1.20;;
54025;SDS011;74404;50.662;3.398;2024-01-06T07:55:13;7.68;;;1.83;;
54025;SDS011;74404;50.662;3.398;2024-01-06T07:57:39;5.20;;;1.30;;
54025;SDS011;74404;50.662;3.398;2024-01-06T08:00:04;4.68;;;1.20;;
54025;SDS011;74404;50.662;3.398;2024-01-06T08:02:30;5.80;;;1.40;;
54025;SDS011;74404;50.662;3.398;2024-01-06T08:04:56;3.35;;;1.45;;
54025;SDS011;74404;50.662;3.398;2024-01-06T08:07:22;2.97;;;1.10;;
54025;SDS011;74404;50.662;3.398;2024-01-06T08:09:47;3.65;;;1.23;;
54025;SDS011;74404;50.662;3.398;2024-01-06T08:12:14;5.32;;;1.50;;
54025;SDS011;74404;50.662;3.398;2024-01-06T08:14:40;3.97;;;1.38;;
54025;SDS011;74404;50.662;3.398;2024-01-06T08:17:06;5.30;;;1.45;;
54025;SDS011;74404;50.662;3.398;2024-01-06T08:19:31;5.30;;;1.48;;
54025;SDS011;74404;50.662;3.398;2024-01-06T08:21:58;3.67;;;1.20;;
54025;SDS011;74404;50.662;3.398;2024-01-06T08:24:23;2.95;;;1.15;;
54025;SDS011;74404;50.662;3.398;2024-01-06T08:26:50;4.90;;;1.52;;
54025;SDS011;74404;50.662;3.398;2024-01-06T08:29:16;4.13;;;1.30;;
54025;SDS011;74404;50.662;3.398;2024-01-06T08:31:44;7.47;;;1.40;;
54025;SDS011;74404;50.662;3.398;2024-01-06T08:34:09;5.40;;;1.50;;
54025;SDS011;74404;50.662;3.398;2024-01-06T08:36:35;4.05;;;1.50;;
54025;SDS011;74404;50.662;3.398;2024-01-06T08:39:00;4.03;;;1.30;;
54025;SDS011;74404;50.662;3.398;2024-01-06T08:41:26;3.17;;;1.10;;
54025;SDS011;74404;50.662;3.398;2024-01-06T08:43:51;3.78;;;1.20;;
54025;SDS011;74404;50.662;3.398;2024-01-06T08:46:17;2.28;;;1.20;;
54025;SDS011;74404;50.662;3.398;2024-01-06T08:48:42;3.10;;;1.40;;
54025;SDS011;74404;50.662;3.398;2024-01-06T08:51:08;3.60;;;1.20;;
54025;SDS011;74404;50.662;3.398;2024-01-06T08:53:33;3.42;;;1.63;;
54025;SDS011;74404;50.662;3.398;2024-01-06T08:55:59;2.85;;;1.55;;
54025;SDS011;74404;50.662;3.398;2024-01-06T08:58:24;2.42;;;1.50;;
54025;SDS011;74404;50.662;3.398;2024-01-06T09:00:50;4.82;;;1.40;;
54025;SDS011;74404;50.662;3.398;2024-01-06T09:03:16;4.60;;;1.80;;
54025;SDS011;74404;50.662;3.398;2024-01-06T09:05:41;3.17;;;1.83;;
54025;SDS011;74404;50.662;3.398;2024-01-06T09:08:07;14.45;;;10.70;;
54025;SDS011;74404;50.662;3.398;2024-01-06T09:10:32;10.52;;;6.68;;
54025;SDS011;74404;50.662;3.398;2024-01-06T09:12:57;477.35;;;361.55;;
54025;SDS011;74404;50.662;3.398;2024-01-06T09:15:23;234.15;;;160.50;;
54025;SDS011;74404;50.662;3.398;2024-01-06T09:17:49;208.65;;;139.95;;
54025;SDS011;74404;50.662;3.398;2024-01-06T09:20:14;181.63;;;125.32;;
54025;SDS011;74404;50.662;3.398;2024-01-06T09:22:40;169.95;;;121.47;;
54025;SDS011;74404;50.662;3.398;2024-01-06T09:25:05;163.48;;;113.90;;
54025;SDS011;74404;50.662;3.398;2024-01-06T09:27:31;213.45;;;165.23;;
54025;SDS011;74404;50.662;3.398;2024-01-06T09:29:57;179.77;;;131.18;;
54025;SDS011;74404;50.662;3.398;2024-01-06T09:32:23;187.90;;;138.43;;
54025;SDS011;74404;50.662;3.398;2024-01-06T09:34:49;190.98;;;139.40;;
54025;SDS011;74404;50.662;3.398;2024-01-06T09:37:14;165.98;;;123.70;;
54025;SDS011;74404;50.662;3.398;2024-01-06T09:39:40;154.95;;;109.55;;
54025;SDS011;74404;50.662;3.398;2024-01-06T09:42:06;156.65;;;127.80;;
54025;SDS011;74404;50.662;3.398;2024-01-06T09:44:32;144.55;;;113.10;;
54025;SDS011;74404;50.662;3.398;2024-01-06T09:46:58;133.55;;;100.85;;
54025;SDS011;74404;50.662;3.398;2024-01-06T09:49:26;119.18;;;81.90;;
54025;SDS011;74404;50.662;3.398;2024-01-06T09:51:53;115.38;;;81.05;;
54025;SDS011;74404;50.662;3.398;2024-01-06T09:54:23;112.57;;;76.20;;
54025;SDS011;74404;50.662;3.398;2024-01-06T09:56:52;98.43;;;58.78;;
54025;SDS011;74404;50.662;3.398;2024-01-06T09:59:18;104.55;;;61.03;;
54025;SDS011;74404;50.662;3.398;2024-01-06T10:01:45;244.38;;;188.60;;
54025;SDS011;74404;50.662;3.398;2024-01-06T10:04:11;267.38;;;207.13;;
54025;SDS011;74404;50.662;3.398;2024-01-06T10:06:36;334.60;;;260.30;;
54025;SDS011;74404;50.662;3.398;2024-01-06T10:09:02;289.00;;;235.82;;
54025;SDS011;74404;50.662;3.398;2024-01-06T10:11:27;259.90;;;212.93;;
54025;SDS011;74404;50.662;3.398;2024-01-06T10:13:52;230.73;;;177.77;;
54025;SDS011;74404;50.662;3.398;2024-01-06T10:16:21;229.93;;;181.25;;
54025;SDS011;74404;50.662;3.398;2024-01-06T10:18:47;199.23;;;162.30;;
54025;SDS011;74404;50.662;3.398;2024-01-06T10:21:13;175.60;;;144.30;;
54025;SDS011;74404;50.662;3.398;2024-01-06T10:23:42;156.45;;;123.05;;
54025;SDS011;74404;50.662;3.398;2024-01-06T10:26:08;145.88;;;113.75;;
54025;SDS011;74404;50.662;3.398;2024-01-06T10:28:37;138.75;;;103.15;;
54025;SDS011;74404;50.662;3.398;2024-01-06T10:31:03;145.63;;;105.68;;
54025;SDS011;74404;50.662;3.398;2024-01-06T10:33:28;382.17;;;318.90;;
54025;SDS011;74404;50.662;3.398;2024-01-06T10:35:57;216.70;;;182.07;;
54025;SDS011;74404;50.662;3.398;2024-01-06T10:38:25;295.80;;;246.43;;
54025;SDS011;74404;50.662;3.398;2024-01-06T10:40:58;269.55;;;230.65;;
54025;SDS011;74404;50.662;3.398;2024-01-06T10:43:25;258.20;;;209.70;;
54025;SDS011;74404;50.662;3.398;2024-01-06T10:45:55;318.65;;;192.25;;
54025;SDS011;74404;50.662;3.398;2024-01-06T10:48:24;271.25;;;177.38;;
54025;SDS011;74404;50.662;3.398;2024-01-06T10:50:50;236.57;;;154.50;;
54025;SDS011;74404;50.662;3.398;2024-01-06T10:53:17;204.45;;;137.48;;
54025;SDS011;74404;50.662;3.398;2024-01-06T10:55:42;189.52;;;124.68;;
54025;SDS011;74404;50.662;3.398;2024-01-06T10:58:09;162.15;;;110.07;;
54025;SDS011;74404;50.662;3.398;2024-01-06T11:00:36;137.13;;;97.43;;
54025;SDS011;74404;50.662;3.398;2024-01-06T11:03:02;128.60;;;89.53;;
54025;SDS011;74404;50.662;3.398;2024-01-06T11:05:29;115.07;;;77.78;;
54025;SDS011;74404;50.662;3.398;2024-01-06T11:07:55;107.60;;;64.45;;
54025;SDS011;74404;50.662;3.398;2024-01-06T11:10:26;105.55;;;59.05;;
54025;SDS011;74404;50.662;3.398;2024-01-06T11:13:14;93.28;;;59.17;;
54025;SDS011;74404;50.662;3.398;2024-01-06T11:15:49;139.02;;;115.63;;
54025;SDS011;74404;50.662;3.398;2024-01-06T11:18:31;143.82;;;122.25;;
54025;SDS011;74404;50.662;3.398;2024-01-06T11:21:21;150.63;;;129.43;;
54025;SDS011;74404;50.662;3.398;2024-01-06T11:26:34;179.77;;;141.50;;
54025;SDS011;74404;50.662;3.398;2024-01-06T11:29:04;164.00;;;131.10;;
54025;SDS011;74404;50.662;3.398;2024-01-06T11:31:32;144.73;;;118.85;;
54025;SDS011;74404;50.662;3.398;2024-01-06T11:33:58;128.25;;;103.40;;
54025;SDS011;74404;50.662;3.398;2024-01-06T11:36:49;132.02;;;88.75;;
54025;SDS011;74404;50.662;3.398;2024-01-06T11:39:34;119.00;;;87.28;;
54025;SDS011;74404;50.662;3.398;2024-01-06T11:42:01;127.38;;;99.40;;
54025;SDS011;74404;50.662;3.398;2024-01-06T11:44:28;125.85;;;100.72;;
54025;SDS011;74404;50.662;3.398;2024-01-06T11:46:56;142.88;;;119.13;;
54025;SDS011;74404;50.662;3.398;2024-01-06T11:49:23;132.10;;;110.38;;
54025;SDS011;74404;50.662;3.398;2024-01-06T11:51:54;125.93;;;101.32;;
54025;SDS011;74404;50.662;3.398;2024-01-06T11:54:21;115.90;;;85.85;;
54025;SDS011;74404;50.662;3.398;2024-01-06T11:56:47;105.57;;;74.40;;
54025;SDS011;74404;50.662;3.398;2024-01-06T11:59:12;96.45;;;59.00;;
54025;SDS011;74404;50.662;3.398;2024-01-06T12:01:38;151.10;;;54.60;;
54025;SDS011;74404;50.662;3.398;2024-01-06T12:04:07;85.40;;;47.17;;
54025;SDS011;74404;50.662;3.398;2024-01-06T12:06:33;66.45;;;40.65;;
54025;SDS011;74404;50.662;3.398;2024-01-06T12:11:31;55.70;;;31.45;;
54025;SDS011;74404;50.662;3.398;2024-01-06T12:13:56;49.05;;;27.88;;
54025;SDS011;74404;50.662;3.398;2024-01-06T12:16:22;62.42;;;26.50;;
54025;SDS011;74404;50.662;3.398;2024-01-06T12:18:52;47.13;;;22.33;;
54025;SDS011;74404;50.662;3.398;2024-01-06T12:21:24;56.90;;;20.77;;
54025;SDS011;74404;50.662;3.398;2024-01-06T12:23:50;45.53;;;18.25;;
54025;SDS011;74404;50.662;3.398;2024-01-06T12:26:19;77.95;;;49.03;;
54025;SDS011;74404;50.662;3.398;2024-01-06T12:28:45;103.53;;;43.95;;
54025;SDS011;74404;50.662;3.398;2024-01-06T12:31:12;144.68;;;87.35;;
54025;SDS011;74404;50.662;3.398;2024-01-06T12:33:40;192.25;;;138.50;;
54025;SDS011;74404;50.662;3.398;2024-01-06T12:36:06;167.65;;;136.88;;
54025;SDS011;74404;50.662;3.398;2024-01-06T12:38:34;148.55;;;117.07;;
54025;SDS011;74404;50.662;3.398;2024-01-06T12:41:00;136.75;;;99.47;;
54025;SDS011;74404;50.662;3.398;2024-01-06T12:43:25;114.97;;;85.57;;
54025;SDS011;74404;50.662;3.398;2024-01-06T12:45:52;106.40;;;67.68;;
54025;SDS011;74404;50.662;3.398;2024-01-06T12:48:18;111.35;;;62.17;;
54025;SDS011;74404;50.662;3.398;2024-01-06T12:50:44;94.88;;;54.72;;
54025;SDS011;74404;50.662;3.398;2024-01-06T12:53:09;101.82;;;49.90;;
54025;SDS011;74404;50.662;3.398;2024-01-06T12:55:37;86.45;;;46.65;;
54025;SDS011;74404;50.662;3.398;2024-01-06T12:58:02;79.60;;;42.60;;
54025;SDS011;74404;50.662;3.398;2024-01-06T13:00:29;65.03;;;38.60;;
54025;SDS011;74404;50.662;3.398;2024-01-06T13:02:54;65.18;;;35.40;;
54025;SDS011;74404;50.662;3.398;2024-01-06T13:05:20;57.50;;;33.17;;
54025;SDS011;74404;50.662;3.398;2024-01-06T13:07:46;50.35;;;29.48;;
54025;SDS011;74404;50.662;3.398;2024-01-06T13:10:11;47.80;;;27.17;;
54025;SDS011;74404;50.662;3.398;2024-01-06T13:12:37;37.58;;;24.92;;
54025;SDS011;74404;50.662;3.398;2024-01-06T13:15:02;38.30;;;23.27;;
54025;SDS011;74404;50.662;3.398;2024-01-06T13:17:30;36.00;;;22.05;;
54025;SDS011;74404;50.662;3.398;2024-01-06T13:19:56;28.27;;;19.45;;
54025;SDS011;74404;50.662;3.398;2024-01-06T13:22:21;28.73;;;18.15;;
54025;SDS011;74404;50.662;3.398;2024-01-06T13:24:47;30.52;;;17.05;;
54025;SDS011;74404;50.662;3.398;2024-01-06T13:27:12;61.92;;;44.28;;
54025;SDS011;74404;50.662;3.398;2024-01-06T13:29:38;98.88;;;65.32;;
54025;SDS011;74404;50.662;3.398;2024-01-06T13:32:03;112.78;;;89.07;;
54025;SDS011;74404;50.662;3.398;2024-01-06T13:34:30;526.47;;;167.30;;
54025;SDS011;74404;50.662;3.398;2024-01-06T13:36:56;206.23;;;132.60;;
54025;SDS011;74404;50.662;3.398;2024-01-06T13:39:22;197.52;;;112.00;;
54025;SDS011;74404;50.662;3.398;2024-01-06T13:41:48;203.70;;;91.57;;
54025;SDS011;74404;50.662;3.398;2024-01-06T13:44:14;462.25;;;100.18;;
54025;SDS011;74404;50.662;3.398;2024-01-06T13:46:40;500.98;;;103.03;;
54025;SDS011;74404;50.662;3.398;2024-01-06T13:49:10;195.45;;;58.38;;
54025;SDS011;74404;50.662;3.398;2024-01-06T13:51:39;131.13;;;54.03;;
54025;SDS011;74404;50.662;3.398;2024-01-06T13:54:05;126.82;;;65.20;;
54025;SDS011;74404;50.662;3.398;2024-01-06T13:56:31;180.80;;;131.75;;
54025;SDS011;74404;50.662;3.398;2024-01-06T13:58:56;176.02;;;143.32;;
54025;SDS011;74404;50.662;3.398;2024-01-06T14:01:22;220.57;;;176.18;;
54025;SDS011;74404;50.662;3.398;2024-01-06T14:03:49;205.73;;;174.20;;
54025;SDS011;74404;50.662;3.398;2024-01-06T14:06:15;181.93;;;151.43;;
54025;SDS011;74404;50.662;3.398;2024-01-06T14:08:42;159.23;;;134.82;;
54025;SDS011;74404;50.662;3.398;2024-01-06T14:11:08;149.93;;;117.05;;
54025;SDS011;74404;50.662;3.398;2024-01-06T14:13:34;124.60;;;101.47;;
54025;SDS011;74404;50.662;3.398;2024-01-06T14:15:59;117.43;;;87.78;;
54025;SDS011;74404;50.662;3.398;2024-01-06T14:18:25;116.22;;;73.15;;
54025;SDS011;74404;50.662;3.398;2024-01-06T14:20:52;99.80;;;62.35;;
54025;SDS011;74404;50.662;3.398;2024-01-06T14:23:20;85.82;;;54.38;;
54025;SDS011;74404;50.662;3.398;2024-01-06T14:25:46;82.95;;;52.80;;
54025;SDS011;74404;50.662;3.398;2024-01-06T14:28:11;77.72;;;49.05;;
54025;SDS011;74404;50.662;3.398;2024-01-06T14:30:37;66.80;;;44.88;;